createdAt,value
2023-12-17T00:00:35.471Z,85.59
2023-12-17T00:02:01.071Z,85.59
2023-12-17T00:02:36.568Z,85.57
2023-12-17T00:04:26.971Z,85.55
2023-12-17T00:04:31.221Z,85.55
2023-12-17T00:05:32.906Z,85.58
2023-12-17T00:06:33.953Z,85.58
2023-12-17T00:07:32.835Z,85.59
2023-12-17T00:08:31.259Z,85.59
2023-12-17T00:09:30.838Z,85.62
2023-12-17T00:10:32.757Z,85.63
2023-12-17T00:11:34.758Z,85.65
2023-12-17T00:12:33.907Z,85.67
2023-12-17T00:13:33.641Z,85.64
2023-12-17T00:14:33.829Z,85.64
2023-12-17T00:15:34.864Z,85.60
2023-12-17T00:16:34.639Z,85.57
2023-12-17T00:17:35.419Z,85.53
2023-12-17T00:18:35.964Z,85.51
2023-12-17T00:19:35.555Z,85.55
2023-12-17T00:20:34.014Z,85.58
2023-12-17T00:21:34.957Z,85.55
2023-12-17T00:22:33.828Z,85.57
2023-12-17T00:23:34.176Z,85.61
2023-12-17T00:24:34.272Z,85.62
2023-12-17T00:25:34.119Z,85.61
2023-12-17T00:26:33.341Z,85.65
2023-12-17T00:27:32.834Z,85.72
2023-12-17T00:28:31.759Z,85.69
2023-12-17T00:29:33.673Z,85.65
2023-12-17T00:30:35.053Z,85.69
2023-12-17T00:31:34.874Z,85.66
2023-12-17T00:32:37.135Z,85.61
2023-12-17T00:33:36.255Z,85.65
2023-12-17T00:34:35.014Z,85.71
2023-12-17T00:35:33.944Z,85.70
2023-12-17T00:36:32.818Z,85.77
2023-12-17T00:37:33.936Z,85.94
2023-12-17T00:38:33.138Z,85.98
2023-12-17T00:39:32.496Z,85.96
2023-12-17T00:40:32.534Z,85.96
2023-12-17T00:41:34.772Z,85.97
2023-12-17T00:42:34.157Z,85.97
2023-12-17T00:43:35.828Z,85.97
2023-12-17T00:44:33.303Z,86
2023-12-17T00:45:33.728Z,85.94
2023-12-17T00:46:32.136Z,85.91
2023-12-17T00:47:33.175Z,85.85
2023-12-17T00:48:33.710Z,85.84
2023-12-17T00:49:33.424Z,85.92
2023-12-17T00:50:33.676Z,85.98
2023-12-17T00:51:34.133Z,85.95
2023-12-17T00:52:35.328Z,85.91
2023-12-17T00:53:33.526Z,85.87
2023-12-17T00:54:32.777Z,85.94
2023-12-17T00:55:33.742Z,85.91
2023-12-17T00:56:34.365Z,85.88
2023-12-17T00:57:33.752Z,85.92
2023-12-17T00:58:33.706Z,85.98
2023-12-17T00:59:33.008Z,85.99
2023-12-17T01:00:32.547Z,85.97
2023-12-17T01:01:34.499Z,85.97
2023-12-17T01:02:34.119Z,86.02
2023-12-17T01:03:34.188Z,86.05
2023-12-17T01:04:34.570Z,86.09
2023-12-17T01:05:33.815Z,86.13
2023-12-17T01:06:35.375Z,86.14
2023-12-17T01:07:34.336Z,86.15
2023-12-17T01:08:31.868Z,86.17
2023-12-17T01:09:33.161Z,86.20
2023-12-17T01:10:33.688Z,86.22
2023-12-17T01:11:33.122Z,86.24
2023-12-17T01:12:34.153Z,86.24
2023-12-17T01:13:35.356Z,86.25
2023-12-17T01:14:32.823Z,86.22
2023-12-17T01:15:32.438Z,86.19
2023-12-17T01:16:32.284Z,86.22
2023-12-17T01:17:31.406Z,86.29
2023-12-17T01:18:33.623Z,86.29
2023-12-17T01:19:32.865Z,86.33
2023-12-17T01:20:31.365Z,86.38
2023-12-17T01:21:34.133Z,86.40
2023-12-17T01:22:33.406Z,86.39
2023-12-17T01:23:32.839Z,86.37
2023-12-17T01:24:33.675Z,86.43
2023-12-17T01:25:34.706Z,86.42
2023-12-17T01:26:34.068Z,86.41
2023-12-17T01:27:34.620Z,86.38
2023-12-17T01:28:32.578Z,86.37
2023-12-17T01:29:33.850Z,86.35
2023-12-17T01:30:33.434Z,86.30
2023-12-17T01:31:33.445Z,86.25
2023-12-17T01:32:32.358Z,86.25
2023-12-17T01:33:31.357Z,86.25
2023-12-17T01:34:34.133Z,86.39
2023-12-17T01:35:34.186Z,86.41
2023-12-17T01:36:33.415Z,86.43
2023-12-17T01:37:33.575Z,86.44
2023-12-17T01:38:32.505Z,86.44
2023-12-17T01:39:31.528Z,86.39
2023-12-17T01:40:34.463Z,86.41
2023-12-17T01:41:32.870Z,86.47
2023-12-17T01:42:33.035Z,86.48
2023-12-17T01:43:32.401Z,86.47
2023-12-17T01:44:32.045Z,86.45
2023-12-17T01:45:33.443Z,86.47
2023-12-17T01:46:33.394Z,86.54
2023-12-17T01:47:33.580Z,86.57
2023-12-17T01:48:33.386Z,86.57
2023-12-17T01:49:34.957Z,86.55
2023-12-17T01:50:34.450Z,86.56
2023-12-17T01:51:32.664Z,86.55
2023-12-17T01:52:31.992Z,86.53
2023-12-17T01:53:31.517Z,86.57
2023-12-17T01:54:32.990Z,86.57
2023-12-17T01:55:34.422Z,86.57
2023-12-17T01:56:34.152Z,86.56
2023-12-17T01:57:32.651Z,86.56
2023-12-17T01:58:32.725Z,86.60
2023-12-17T01:59:33.013Z,86.62
2023-12-17T02:00:33.794Z,86.61
2023-12-17T02:01:32.688Z,86.64
2023-12-17T02:02:33.377Z,86.67
2023-12-17T02:03:34.802Z,86.64
2023-12-17T02:04:33.376Z,86.60
2023-12-17T02:05:33.807Z,86.62
2023-12-17T02:06:33.628Z,86.65
2023-12-17T02:07:32.605Z,86.68
2023-12-17T02:08:31.713Z,86.69
2023-12-17T02:09:33.516Z,86.71
2023-12-17T02:10:33.538Z,86.73
2023-12-17T02:11:33.934Z,86.73
2023-12-17T02:12:33.499Z,86.72
2023-12-17T02:13:34.148Z,86.71
2023-12-17T02:14:32.736Z,86.73
2023-12-17T02:15:32.646Z,86.80
2023-12-17T02:16:34.719Z,86.78
2023-12-17T02:17:33.482Z,86.76
2023-12-17T02:18:32.481Z,86.80
2023-12-17T02:19:33.618Z,86.86
2023-12-17T02:20:32.857Z,86.90
2023-12-17T02:21:32.004Z,86.94
2023-12-17T02:22:32.930Z,86.92
2023-12-17T02:23:31.281Z,86.89
2023-12-17T02:24:33.075Z,86.92
2023-12-17T02:25:34.108Z,86.87
2023-12-17T02:26:33.662Z,86.79
2023-12-17T02:27:32.773Z,86.82
2023-12-17T02:28:33.319Z,86.89
2023-12-17T02:29:33.239Z,86.89
2023-12-17T02:30:33.251Z,86.90
2023-12-17T02:31:33.570Z,86.85
2023-12-17T02:32:31.407Z,86.90
2023-12-17T02:33:31.262Z,86.94
2023-12-17T02:34:33.635Z,86.99
2023-12-17T02:35:33.031Z,86.97
2023-12-17T02:36:32.854Z,86.98
2023-12-17T02:37:31.032Z,87.00
2023-12-17T02:38:31.858Z,87.04
2023-12-17T02:39:32.068Z,87.05
2023-12-17T02:40:32.058Z,87.11
2023-12-17T02:41:32.915Z,87.12
2023-12-17T02:42:32.100Z,87.16
2023-12-17T02:43:34.815Z,87.19
2023-12-17T02:44:32.848Z,87.19
2023-12-17T02:45:33.208Z,87.16
2023-12-17T02:46:32.621Z,87.14
2023-12-17T02:47:31.723Z,87.17
2023-12-17T02:48:32.149Z,87.16
2023-12-17T02:49:33.769Z,87.17
2023-12-17T02:50:33.875Z,87.20
2023-12-17T02:51:35.167Z,87.13
2023-12-17T02:52:36.298Z,87.13
2023-12-17T02:53:34.118Z,87.14
2023-12-17T02:54:34.389Z,87.12
2023-12-17T02:55:33.318Z,87.13
2023-12-17T02:56:31.728Z,87.20
2023-12-17T02:57:30.197Z,87.22
2023-12-17T02:58:31.794Z,87.22
2023-12-17T02:59:32.590Z,87.27
2023-12-17T03:00:33.989Z,87.28
2023-12-17T03:01:35.316Z,87.29
2023-12-17T03:02:34.299Z,87.29
2023-12-17T03:03:34.814Z,87.25
2023-12-17T03:04:35.192Z,87.23
2023-12-17T03:05:35.130Z,87.25
2023-12-17T03:06:35.093Z,87.22
2023-12-17T03:07:34.384Z,87.20
2023-12-17T03:08:32.770Z,87.20
2023-12-17T03:09:31.523Z,87.18
2023-12-17T03:10:32.630Z,87.17
2023-12-17T03:11:33.300Z,87.19
2023-12-17T03:12:33.729Z,87.22
2023-12-17T03:13:33.617Z,87.23
2023-12-17T03:14:32.258Z,87.22
2023-12-17T03:15:33.904Z,87.21
2023-12-17T03:16:33.614Z,87.19
2023-12-17T03:17:33.946Z,87.17
2023-12-17T03:18:34.753Z,87.12
2023-12-17T03:19:33.192Z,87.13
2023-12-17T03:20:33.217Z,87.14
2023-12-17T03:21:33.783Z,87.11
2023-12-17T03:22:32.514Z,87.05
2023-12-17T03:23:34.292Z,87.03
2023-12-17T03:24:33.911Z,87.09
2023-12-17T03:25:35.046Z,87.14
2023-12-17T03:26:34.391Z,87.17
2023-12-17T03:27:33.124Z,87.19
2023-12-17T03:28:33.430Z,87.18
2023-12-17T03:29:33.302Z,87.17
2023-12-17T03:30:33.430Z,87.08
2023-12-17T03:31:34.036Z,87.07
2023-12-17T03:32:33.113Z,87.08
2023-12-17T03:33:31.985Z,87.08
2023-12-17T03:34:33.915Z,87.14
2023-12-17T03:35:33.759Z,87.18
2023-12-17T03:36:32.306Z,87.16
2023-12-17T03:37:33.226Z,87.14
2023-12-17T03:38:33.693Z,87.22
2023-12-17T03:39:33.289Z,87.29
2023-12-17T03:40:32.135Z,87.33
2023-12-17T03:41:32.106Z,87.30
2023-12-17T03:42:32.422Z,87.30
2023-12-17T03:43:32.591Z,87.30
2023-12-17T03:44:32.318Z,87.26
2023-12-17T03:45:32.243Z,87.30
2023-12-17T03:46:33.155Z,87.28
2023-12-17T03:47:32.767Z,87.31
2023-12-17T03:48:33.321Z,87.29
2023-12-17T03:49:33.749Z,87.26
2023-12-17T03:50:33.248Z,87.27
2023-12-17T03:51:34.159Z,87.30
2023-12-17T03:52:32.316Z,87.30
2023-12-17T03:53:33.119Z,87.37
2023-12-17T03:54:34.159Z,87.43
2023-12-17T03:55:34.265Z,87.37
2023-12-17T03:56:34.079Z,87.36
2023-12-17T03:57:33.629Z,87.35
2023-12-17T03:58:31.641Z,87.34
2023-12-17T03:59:33.381Z,87.36
2023-12-17T04:00:35.278Z,87.35
2023-12-17T04:01:35.664Z,87.35
2023-12-17T04:02:35.968Z,87.33
2023-12-17T04:03:34.394Z,87.34
2023-12-17T04:04:33.821Z,87.37
2023-12-17T04:05:33.411Z,87.37
2023-12-17T04:06:33.456Z,87.34
2023-12-17T04:07:31.454Z,87.36
2023-12-17T04:08:30.568Z,87.36
2023-12-17T04:09:32.713Z,87.36
2023-12-17T04:10:33.693Z,87.40
2023-12-17T04:11:33.207Z,87.39
2023-12-17T04:12:33.609Z,87.36
2023-12-17T04:13:32.962Z,87.33
2023-12-17T04:14:33.038Z,87.32
2023-12-17T04:15:31.605Z,87.30
2023-12-17T04:16:33.028Z,87.28
2023-12-17T04:17:34.100Z,87.28
2023-12-17T04:18:34.763Z,87.32
2023-12-17T04:19:32.673Z,87.32
2023-12-17T04:20:32.273Z,87.31
2023-12-17T04:21:33.961Z,87.30
2023-12-17T04:22:34.240Z,87.28
2023-12-17T04:23:34.000Z,87.26
2023-12-17T04:24:34.470Z,87.28
2023-12-17T04:25:34.268Z,87.32
2023-12-17T04:26:34.457Z,87.37
2023-12-17T04:27:33.826Z,87.37
2023-12-17T04:28:31.691Z,87.40
2023-12-17T04:29:31.039Z,87.40
2023-12-17T04:30:33.143Z,87.40
2023-12-17T04:31:32.822Z,87.41
2023-12-17T04:32:32.320Z,87.37
2023-12-17T04:33:33.565Z,87.36
2023-12-17T04:34:33.523Z,87.35
2023-12-17T04:35:32.168Z,87.33
2023-12-17T04:36:33.504Z,87.32
2023-12-17T04:37:33.320Z,87.34
2023-12-17T04:38:33.794Z,87.37
2023-12-17T04:39:33.094Z,87.40
2023-12-17T04:40:34.474Z,87.41
2023-12-17T04:41:33.967Z,87.42
2023-12-17T04:42:35.539Z,87.44
2023-12-17T04:43:33.772Z,87.41
2023-12-17T04:44:33.393Z,87.41
2023-12-17T04:45:34.210Z,87.44
2023-12-17T04:46:32.847Z,87.48
2023-12-17T04:47:33.489Z,87.51
2023-12-17T04:48:34.642Z,87.54
2023-12-17T04:49:34.991Z,87.51
2023-12-17T04:50:35.730Z,87.46
2023-12-17T04:51:34.162Z,87.41
2023-12-17T04:52:36.413Z,87.40
2023-12-17T04:53:34.099Z,87.38
2023-12-17T04:54:33.629Z,87.30
2023-12-17T04:55:34.448Z,87.26
2023-12-17T04:56:35.055Z,87.22
2023-12-17T04:57:35.320Z,87.22
2023-12-17T04:58:34.007Z,87.20
2023-12-17T04:59:34.461Z,87.19
2023-12-17T05:00:34.359Z,87.12
2023-12-17T05:01:36.685Z,87.10
2023-12-17T05:02:35.585Z,87.04
2023-12-17T05:03:36.219Z,86.99
2023-12-17T05:04:35.502Z,87.00
2023-12-17T05:05:34.784Z,86.99
2023-12-17T05:06:34.832Z,86.93
2023-12-17T05:07:34.827Z,86.85
2023-12-17T05:08:34.979Z,86.86
2023-12-17T05:09:35.437Z,86.92
2023-12-17T05:10:33.238Z,86.95
2023-12-17T05:11:32.908Z,87.05
2023-12-17T05:12:32.090Z,87.06
2023-12-17T05:13:32.006Z,87.06
2023-12-17T05:14:32.018Z,87.04
2023-12-17T05:15:33.273Z,87.05
2023-12-17T05:16:32.765Z,87.04
2023-12-17T05:17:34.567Z,86.94
2023-12-17T05:18:35.568Z,86.90
2023-12-17T05:19:34.552Z,86.96
2023-12-17T05:20:35.120Z,87.08
2023-12-17T05:21:33.904Z,87.12
2023-12-17T05:22:31.746Z,87.15
2023-12-17T05:23:33.837Z,87.16
2023-12-17T05:24:34.426Z,87.16
2023-12-17T05:25:49.827Z,87.20
2023-12-17T05:26:36.767Z,87.20
2023-12-17T05:27:34.957Z,87.20
2023-12-17T05:28:33.746Z,87.16
2023-12-17T05:29:35.150Z,87.20
2023-12-17T05:30:35.302Z,87.23
2023-12-17T05:31:35.058Z,87.22
2023-12-17T05:32:35.097Z,87.21
2023-12-17T05:33:35.093Z,87.23
2023-12-17T05:34:35.095Z,87.25
2023-12-17T05:35:35.098Z,87.28
2023-12-17T05:36:34.726Z,87.30
2023-12-17T05:37:34.037Z,87.27
2023-12-17T05:38:34.452Z,87.25
2023-12-17T05:39:34.105Z,87.24
2023-12-17T05:40:35.959Z,87.25
2023-12-17T05:41:34.460Z,87.20
2023-12-17T05:42:36.033Z,87.18
2023-12-17T05:43:35.878Z,87.15
2023-12-17T05:44:34.582Z,87.17
2023-12-17T05:45:42.022Z,87.21
2023-12-17T05:47:12.085Z,87.24
2023-12-17T05:47:31.829Z,87.18
2023-12-17T05:48:35.217Z,87.16
2023-12-17T05:49:35.015Z,87.23
2023-12-17T05:50:34.173Z,87.29
2023-12-17T05:51:34.685Z,87.30
2023-12-17T05:52:32.909Z,87.34
2023-12-17T05:53:41.333Z,87.37
2023-12-17T05:54:35.125Z,87.33
2023-12-17T05:55:34.742Z,87.32
2023-12-17T05:56:34.171Z,87.26
2023-12-17T05:57:33.091Z,87.18
2023-12-17T05:58:33.880Z,87.15
2023-12-17T05:59:32.854Z,87.12
2023-12-17T06:00:35.869Z,87.08
2023-12-17T06:02:12.069Z,87.10
2023-12-17T06:02:34.129Z,87.16
2023-12-17T06:03:33.980Z,87.21
2023-12-17T06:04:34.018Z,87.27
2023-12-17T06:05:34.896Z,87.33
2023-12-17T06:06:32.728Z,87.37
2023-12-17T06:07:32.039Z,87.42
2023-12-17T06:08:32.881Z,87.42
2023-12-17T06:09:34.689Z,87.41
2023-12-17T06:10:37.278Z,87.41
2023-12-17T06:12:00.893Z,87.42
2023-12-17T06:12:35.857Z,87.43
2023-12-17T06:13:34.713Z,87.39
2023-12-17T06:14:34.909Z,87.32
2023-12-17T06:15:50.754Z,87.26
2023-12-17T06:16:37.945Z,87.25
2023-12-17T06:17:36.328Z,87.28
2023-12-17T06:18:37.140Z,87.33
2023-12-17T06:19:36.046Z,87.33
2023-12-17T06:20:34.987Z,87.33
2023-12-17T06:21:35.412Z,87.30
2023-12-17T06:22:34.684Z,87.23
2023-12-17T06:23:33.080Z,87.22
2023-12-17T06:24:35.097Z,87.22
2023-12-17T06:25:49.645Z,87.20
2023-12-17T06:26:35.234Z,87.16
2023-12-17T06:27:34.684Z,87.16
2023-12-17T06:28:33.866Z,87.18
2023-12-17T06:29:33.015Z,87.15
2023-12-17T06:30:34.852Z,87.10
2023-12-17T06:31:35.643Z,87.12
2023-12-17T06:32:35.073Z,87.16
2023-12-17T06:33:34.772Z,87.18
2023-12-17T06:34:34.479Z,87.20
2023-12-17T06:35:34.815Z,87.20
2023-12-17T06:36:34.655Z,87.16
2023-12-17T06:37:35.751Z,87.12
2023-12-17T06:38:35.597Z,87.11
2023-12-17T06:39:35.955Z,87.12
2023-12-17T06:40:35.757Z,87.10
2023-12-17T06:41:36.585Z,87.11
2023-12-17T06:42:35.856Z,87.14
2023-12-17T06:43:35.929Z,87.13
2023-12-17T06:44:35.202Z,87.11
2023-12-17T06:45:34.982Z,87.05
2023-12-17T06:46:34.648Z,87.05
2023-12-17T06:47:33.433Z,87.05
2023-12-17T06:48:34.412Z,87.01
2023-12-17T06:49:35.585Z,87.04
2023-12-17T06:50:34.461Z,87.05
2023-12-17T06:51:34.992Z,87.01
2023-12-17T06:52:36.360Z,86.99
2023-12-17T06:53:35.134Z,86.97
2023-12-17T06:54:35.972Z,86.97
2023-12-17T06:55:35.764Z,86.95
2023-12-17T06:56:34.556Z,86.91
2023-12-17T06:57:35.135Z,86.88
2023-12-17T06:58:36.191Z,86.86
2023-12-17T06:59:35.344Z,86.78
2023-12-17T07:00:34.867Z,86.78
2023-12-17T07:01:36.601Z,86.77
2023-12-17T07:02:37.680Z,86.80
2023-12-17T07:04:00.970Z,86.86
2023-12-17T07:04:37.093Z,86.89
2023-12-17T07:05:35.976Z,86.94
2023-12-17T07:06:34.422Z,86.96
2023-12-17T07:07:34.071Z,87.00
2023-12-17T07:08:33.495Z,86.99
2023-12-17T07:09:34.883Z,86.97
2023-12-17T07:10:32.774Z,86.97
2023-12-17T07:11:32.433Z,86.97
2023-12-17T07:12:35.419Z,86.90
2023-12-17T07:13:35.426Z,86.85
2023-12-17T07:14:34.059Z,86.86
2023-12-17T07:15:33.088Z,86.87
2023-12-17T07:16:36.429Z,86.93
2023-12-17T07:18:03.761Z,86.96
2023-12-17T07:18:35.439Z,86.91
2023-12-17T07:19:35.165Z,86.84
2023-12-17T07:20:33.938Z,86.82
2023-12-17T07:21:33.455Z,86.74
2023-12-17T07:22:33.672Z,86.69
2023-12-17T07:23:33.498Z,86.65
2023-12-17T07:24:35.284Z,86.62
2023-12-17T07:25:34.722Z,86.60
2023-12-17T07:26:34.273Z,86.55
2023-12-17T07:27:36.057Z,86.53
2023-12-17T07:28:34.896Z,86.54
2023-12-17T07:29:33.507Z,86.56
2023-12-17T07:30:36.166Z,86.56
2023-12-17T07:31:34.688Z,86.54
2023-12-17T07:32:34.402Z,86.55
2023-12-17T07:33:35.696Z,86.55
2023-12-17T07:34:34.991Z,86.61
2023-12-17T07:35:36.068Z,86.60
2023-12-17T07:36:35.164Z,86.60
2023-12-17T07:37:34.509Z,86.62
2023-12-17T07:38:34.234Z,86.63
2023-12-17T07:39:35.797Z,86.63
2023-12-17T07:40:34.458Z,86.61
2023-12-17T07:41:34.514Z,86.59
2023-12-17T07:42:34.300Z,86.56
2023-12-17T07:43:34.872Z,86.52
2023-12-17T07:44:34.566Z,86.52
2023-12-17T07:45:35.439Z,86.48
2023-12-17T07:46:34.676Z,86.40
2023-12-17T07:47:35.559Z,86.35
2023-12-17T07:48:35.844Z,86.31
2023-12-17T07:49:35.623Z,86.27
2023-12-17T07:50:36.434Z,86.24
2023-12-17T07:51:35.909Z,86.20
2023-12-17T07:52:34.602Z,86.14
2023-12-17T07:53:35.083Z,86.08
2023-12-17T07:54:37.104Z,86.10
2023-12-17T07:55:37.104Z,86.09
2023-12-17T07:57:01.458Z,86.05
2023-12-17T07:57:55.619Z,86.02
2023-12-17T07:59:07.562Z,86.05
2023-12-17T07:59:33.628Z,86.08
2023-12-17T08:00:51.866Z,86.14
2023-12-17T08:02:17.530Z,86.12
2023-12-17T08:02:35.429Z,86.06
2023-12-17T08:04:08.058Z,86.12
2023-12-17T08:04:34.481Z,86.15
2023-12-17T08:05:36.013Z,86.24
2023-12-17T08:06:37.528Z,86.28
2023-12-17T08:07:36.586Z,86.25
2023-12-17T08:08:35.235Z,86.25
2023-12-17T08:09:35.032Z,86.29
2023-12-17T08:10:35.340Z,86.32
2023-12-17T08:11:34.639Z,86.38
2023-12-17T08:12:34.571Z,86.43
2023-12-17T08:13:36.056Z,86.43
2023-12-17T08:14:36.754Z,86.44
2023-12-17T08:15:35.929Z,86.41
2023-12-17T08:16:35.983Z,86.38
2023-12-17T08:17:53.477Z,86.39
2023-12-17T08:19:11.322Z,86.39
2023-12-17T08:19:33.814Z,86.43
2023-12-17T08:20:36.222Z,86.48
2023-12-17T08:21:36.008Z,86.50
2023-12-17T08:22:34.840Z,86.48
2023-12-17T08:23:33.136Z,86.50
2023-12-17T08:24:34.278Z,86.53
2023-12-17T08:25:35.036Z,86.54
2023-12-17T08:26:34.605Z,86.52
2023-12-17T08:27:34.991Z,86.44
2023-12-17T08:28:35.934Z,86.46
2023-12-17T08:29:35.262Z,86.55
2023-12-17T08:30:37.181Z,86.52
2023-12-17T08:31:37.156Z,86.58
2023-12-17T08:32:36.270Z,86.63
2023-12-17T08:33:35.186Z,86.67
2023-12-17T08:34:35.488Z,86.66
2023-12-17T08:35:36.322Z,86.66
2023-12-17T08:36:36.729Z,86.69
2023-12-17T08:37:35.930Z,86.73
2023-12-17T08:38:35.919Z,86.76
2023-12-17T08:39:36.783Z,86.75
2023-12-17T08:40:36.291Z,86.75
2023-12-17T08:41:36.023Z,86.76
2023-12-17T08:42:35.904Z,86.75
2023-12-17T08:43:34.899Z,86.75
2023-12-17T08:44:35.768Z,86.74
2023-12-17T08:45:51.967Z,86.80
2023-12-17T08:47:10.583Z,86.83
2023-12-17T08:47:33.913Z,86.87
2023-12-17T08:48:34.579Z,86.87
2023-12-17T08:49:36.759Z,86.86
2023-12-17T08:50:37.072Z,86.87
2023-12-17T08:51:37.442Z,86.88
2023-12-17T08:52:37.152Z,86.87
2023-12-17T08:54:00.959Z,86.87
2023-12-17T08:54:37.365Z,86.90
2023-12-17T08:55:36.701Z,86.88
2023-12-17T08:56:36.307Z,86.91
2023-12-17T08:57:37.407Z,86.90
2023-12-17T08:58:37.513Z,86.86
2023-12-17T08:59:37.385Z,86.86
2023-12-17T09:00:38.456Z,86.86
2023-12-17T09:02:05.603Z,86.91
2023-12-17T09:02:35.770Z,86.89
2023-12-17T09:03:35.509Z,86.90
2023-12-17T09:04:35.077Z,86.88
2023-12-17T09:05:35.239Z,86.89
2023-12-17T09:06:35.469Z,86.95
2023-12-17T09:07:34.899Z,86.97
2023-12-17T09:08:34.925Z,87.03
2023-12-17T09:09:34.784Z,87.04
2023-12-17T09:10:35.181Z,87.02
2023-12-17T09:11:36.438Z,86.98
2023-12-17T09:12:36.370Z,86.99
2023-12-17T09:13:34.748Z,86.96
2023-12-17T09:14:34.368Z,86.94
2023-12-17T09:15:37.018Z,86.90
2023-12-17T09:16:35.822Z,86.86
2023-12-17T09:17:35.979Z,86.85
2023-12-17T09:18:37.742Z,86.75
2023-12-17T09:19:37.732Z,86.69
2023-12-17T09:20:37.161Z,86.62
2023-12-17T09:22:04.933Z,86.58
2023-12-17T09:22:33.752Z,86.59
2023-12-17T09:23:36.475Z,86.57
2023-12-17T09:24:37.284Z,86.54
2023-12-17T09:25:36.082Z,86.48
2023-12-17T09:26:35.736Z,86.46
2023-12-17T09:27:35.305Z,86.45
2023-12-17T09:28:36.342Z,86.44
2023-12-17T09:29:35.332Z,86.39
2023-12-17T09:30:34.702Z,86.42
2023-12-17T09:31:34.986Z,86.49
2023-12-17T09:33:08.971Z,86.53
2023-12-17T09:33:32.383Z,86.47
2023-12-17T09:34:31.776Z,86.39
2023-12-17T09:35:34.152Z,86.39
2023-12-17T09:36:37.154Z,86.39
2023-12-17T09:37:37.386Z,86.36
2023-12-17T09:38:54.655Z,86.41
2023-12-17T09:40:11.824Z,86.41
2023-12-17T09:40:34.839Z,86.37
2023-12-17T09:42:00.131Z,86.31
2023-12-17T09:42:59.594Z,86.27
2023-12-17T09:43:34.044Z,86.29
2023-12-17T09:44:34.552Z,86.34
2023-12-17T09:45:34.077Z,86.41
2023-12-17T09:46:34.945Z,86.44
2023-12-17T09:47:34.318Z,86.48
2023-12-17T09:48:36.829Z,86.42
2023-12-17T09:49:36.360Z,86.33
2023-12-17T09:50:36.565Z,86.26
2023-12-17T09:51:36.043Z,86.19
2023-12-17T09:52:34.805Z,86.11
2023-12-17T09:53:34.618Z,86.03
2023-12-17T09:54:35.991Z,86.07
2023-12-17T09:55:35.492Z,86.09
2023-12-17T09:56:34.814Z,86.08
2023-12-17T09:57:35.645Z,86.08
2023-12-17T09:58:34.957Z,86.08
2023-12-17T09:59:34.712Z,86.11
2023-12-17T10:00:35.568Z,86.13
2023-12-17T10:01:38.458Z,86.16
2023-12-17T10:03:11.746Z,86.18
2023-12-17T10:03:35.141Z,86.13
2023-12-17T10:04:53.077Z,86.16
2023-12-17T10:06:13.508Z,86.14
2023-12-17T10:06:35.767Z,86.14
2023-12-17T10:07:33.811Z,86.10
2023-12-17T10:08:34.526Z,86.00
2023-12-17T10:09:34.027Z,85.89
2023-12-17T10:10:35.297Z,85.87
2023-12-17T10:11:35.648Z,85.77
2023-12-17T10:12:35.498Z,85.70
2023-12-17T10:13:35.277Z,85.58
2023-12-17T10:14:35.132Z,85.47
2023-12-17T10:15:35.616Z,85.45
2023-12-17T10:16:35.584Z,85.45
2023-12-17T10:17:35.430Z,85.43
2023-12-17T10:18:36.838Z,85.39
2023-12-17T10:19:37.506Z,85.46
2023-12-17T10:20:36.544Z,85.48
2023-12-17T10:21:35.125Z,85.47
2023-12-17T10:22:35.325Z,85.45
2023-12-17T10:23:33.847Z,85.31
2023-12-17T10:24:35.140Z,85.39
2023-12-17T10:26:00.369Z,85.37
2023-12-17T10:26:54.284Z,85.36
2023-12-17T10:28:10.317Z,85.39
2023-12-17T10:28:32.657Z,85.44
2023-12-17T10:29:36.196Z,85.46
2023-12-17T10:30:36.821Z,85.49
2023-12-17T10:32:10.057Z,85.49
2023-12-17T10:32:33.256Z,85.38
2023-12-17T10:33:32.736Z,85.29
2023-12-17T10:34:34.155Z,85.33
2023-12-17T10:35:36.830Z,85.44
2023-12-17T10:36:36.441Z,85.42
2023-12-17T10:38:05.629Z,85.39
2023-12-17T10:38:34.542Z,85.41
2023-12-17T10:39:35.596Z,85.49
2023-12-17T10:40:34.886Z,85.46
2023-12-17T10:41:35.245Z,85.39
2023-12-17T10:42:35.653Z,85.33
2023-12-17T10:43:34.464Z,85.33
2023-12-17T10:44:35.255Z,85.28
2023-12-17T10:45:34.791Z,85.21
2023-12-17T10:46:34.920Z,85.16
2023-12-17T10:47:34.935Z,85.06
2023-12-17T10:48:34.740Z,85.10
2023-12-17T10:49:34.498Z,85.19
2023-12-17T10:50:36.132Z,85.18
2023-12-17T10:51:35.135Z,85.14
2023-12-17T10:52:34.374Z,85.21
2023-12-17T10:53:35.253Z,85.13
2023-12-17T10:54:34.747Z,85.01
2023-12-17T10:55:34.462Z,84.95
2023-12-17T10:56:35.658Z,84.88
2023-12-17T10:57:34.837Z,84.83
2023-12-17T10:58:32.977Z,84.76
2023-12-17T10:59:38.191Z,84.68
2023-12-17T11:00:35.043Z,84.65
2023-12-17T11:01:34.454Z,84.75
2023-12-17T11:02:35.087Z,84.89
2023-12-17T11:03:36.819Z,84.84
2023-12-17T11:04:35.509Z,84.86
2023-12-17T11:05:35.602Z,84.80
2023-12-17T11:06:37.999Z,84.69
2023-12-17T11:08:11.236Z,84.69
2023-12-17T11:08:33.586Z,84.76
2023-12-17T11:09:33.932Z,84.74
2023-12-17T11:10:36.645Z,84.79
2023-12-17T11:11:35.904Z,84.37
2023-12-17T11:12:36.605Z,84.09
2023-12-17T11:14:08.002Z,83.91
2023-12-17T11:14:36.409Z,83.96
2023-12-17T11:16:02.660Z,84.08
2023-12-17T11:17:09.236Z,84.06
2023-12-17T11:17:35.557Z,83.99
2023-12-17T11:19:03.193Z,83.92
2023-12-17T11:19:36.421Z,83.84
2023-12-17T11:20:36.773Z,83.95
2023-12-17T11:21:36.925Z,83.83
2023-12-17T11:22:35.710Z,83.77
2023-12-17T11:23:35.379Z,83.79
2023-12-17T11:24:35.206Z,83.85
2023-12-17T11:25:51.845Z,83.94
2023-12-17T11:26:36.589Z,84.02
2023-12-17T11:27:36.827Z,84.03
2023-12-17T11:28:35.763Z,84.18
2023-12-17T11:30:01.269Z,84.17
2023-12-17T11:31:00.547Z,84.03
2023-12-17T11:31:37.120Z,84.03
2023-12-17T11:32:37.739Z,84.13
2023-12-17T11:34:10.059Z,84.23
2023-12-17T11:34:36.721Z,84.28
2023-12-17T11:35:37.118Z,84.37
2023-12-17T11:36:36.567Z,84.27
2023-12-17T11:37:35.775Z,84.26
2023-12-17T11:38:34.740Z,84.37
2023-12-17T11:39:36.024Z,84.30
2023-12-17T11:40:35.817Z,84.44
2023-12-17T11:41:35.288Z,84.36
2023-12-17T11:42:36.007Z,84.22
2023-12-17T11:43:36.988Z,84.42
2023-12-17T11:44:36.500Z,84.56
2023-12-17T11:45:36.113Z,84.57
2023-12-17T11:46:35.564Z,84.43
2023-12-17T11:47:35.303Z,84.48
2023-12-17T11:48:35.582Z,84.55
2023-12-17T11:49:36.334Z,84.65
2023-12-17T11:50:36.099Z,84.61
2023-12-17T11:51:36.706Z,84.47
2023-12-17T11:52:36.382Z,84.47
2023-12-17T11:53:55.046Z,84.25
2023-12-17T11:55:09.847Z,84.34
2023-12-17T11:55:34.343Z,84.37
2023-12-17T11:56:35.304Z,84.47
2023-12-17T11:57:35.991Z,84.38
2023-12-17T11:58:35.001Z,84.33
2023-12-17T11:59:33.119Z,84.21
2023-12-17T12:00:34.981Z,84.35
2023-12-17T12:02:00.862Z,84.45
2023-12-17T12:03:00.951Z,84.55
2023-12-17T12:04:01.089Z,84.56
2023-12-17T12:04:36.778Z,84.51
2023-12-17T12:05:35.622Z,84.49
2023-12-17T12:06:35.473Z,84.51
2023-12-17T12:07:35.914Z,84.46
2023-12-17T12:08:35.728Z,84.62
2023-12-17T12:09:35.831Z,84.62
2023-12-17T12:10:36.048Z,84.58
2023-12-17T12:11:36.390Z,84.49
2023-12-17T12:12:35.847Z,84.53
2023-12-17T12:13:35.783Z,84.61
2023-12-17T12:14:36.839Z,84.63
2023-12-17T12:15:38.719Z,84.68
2023-12-17T12:17:06.909Z,84.69
2023-12-17T12:17:35.998Z,84.59
2023-12-17T12:19:19.722Z,84.52
2023-12-17T12:19:34.460Z,84.48
2023-12-17T12:20:33.201Z,84.44
2023-12-17T12:21:34.166Z,84.35
2023-12-17T12:22:35.485Z,84.40
2023-12-17T12:23:35.858Z,84.41
2023-12-17T12:24:35.425Z,84.44
2023-12-17T12:25:35.699Z,84.42
2023-12-17T12:26:35.548Z,84.33
2023-12-17T12:27:34.578Z,83.98
2023-12-17T12:28:34.910Z,83.86
2023-12-17T12:29:34.984Z,84.01
2023-12-17T12:30:34.655Z,84.14
2023-12-17T12:31:34.942Z,84.09
2023-12-17T12:32:35.410Z,84.21
2023-12-17T12:33:35.097Z,84.30
2023-12-17T12:34:34.705Z,84.15
2023-12-17T12:35:34.115Z,84.17
2023-12-17T12:36:34.628Z,84.05
2023-12-17T12:37:33.724Z,83.79
2023-12-17T12:38:34.115Z,83.70
2023-12-17T12:39:44.754Z,83.55
2023-12-17T12:41:08.011Z,83.59
2023-12-17T12:41:33.376Z,83.70
2023-12-17T12:42:35.975Z,83.76
2023-12-17T12:43:36.218Z,83.77
2023-12-17T12:44:36.057Z,83.78
2023-12-17T12:45:34.639Z,83.93
2023-12-17T12:46:34.335Z,83.99
2023-12-17T12:47:36.369Z,83.79
2023-12-17T12:48:36.782Z,83.78
2023-12-17T12:49:36.267Z,83.83
2023-12-17T12:50:35.732Z,83.96
2023-12-17T12:51:35.541Z,84.01
2023-12-17T12:52:34.488Z,84.00